createdAt,value
2023-07-27T00:00:37.088Z,77.49
2023-07-27T00:03:05.625Z,77.74
2023-07-27T00:05:34.651Z,77.90
2023-07-27T00:08:02.988Z,78.23
2023-07-27T00:10:31.444Z,78.54
2023-07-27T00:12:59.706Z,78.67
2023-07-27T00:15:28.032Z,78.45
2023-07-27T00:17:56.551Z,78.46
2023-07-27T00:20:24.882Z,78.33
2023-07-27T00:22:53.204Z,78.46
2023-07-27T00:25:21.571Z,78.15
2023-07-27T00:27:49.823Z,78.17
2023-07-27T00:30:18.276Z,78.32
2023-07-27T00:32:46.748Z,78.88
2023-07-27T00:35:15.129Z,79.27
2023-07-27T00:37:44.016Z,79.90
2023-07-27T00:40:12.457Z,79.68
2023-07-27T00:42:40.742Z,80.09
2023-07-27T00:45:09.498Z,80.37
2023-07-27T00:47:37.960Z,80.38
2023-07-27T00:50:06.624Z,80.67
2023-07-27T00:52:34.967Z,80.87
2023-07-27T00:55:03.536Z,81.07
2023-07-27T00:57:31.877Z,81.55
2023-07-27T01:00:00.212Z,81.67
2023-07-27T01:02:28.547Z,82.68
2023-07-27T01:04:56.758Z,83.04
2023-07-27T01:07:24.999Z,84.04
2023-07-27T01:09:53.283Z,84.34
2023-07-27T01:12:36.856Z,83.52
2023-07-27T01:15:12.700Z,83.81
2023-07-27T01:17:40.921Z,84.02
2023-07-27T01:20:47.773Z,83.82
2023-07-27T01:24:00.100Z,83.88
2023-07-27T01:26:48.414Z,83.59
2023-07-27T01:29:55.631Z,84.04
2023-07-27T01:32:24.789Z,84.47
2023-07-27T01:34:58.710Z,84.63
2023-07-27T01:37:31.131Z,84.79
2023-07-27T01:40:03.175Z,85.05
2023-07-27T01:42:32.160Z,85.33
2023-07-27T01:45:00.833Z,86.00
2023-07-27T01:47:30.454Z,86.03
2023-07-27T01:49:59.576Z,86.59
2023-07-27T01:52:28.646Z,86.94
2023-07-27T01:54:59.332Z,86.98
2023-07-27T01:57:27.741Z,87.23
2023-07-27T01:59:56.265Z,87.80
2023-07-27T02:02:24.635Z,87.79
2023-07-27T02:04:53.974Z,87.99
2023-07-27T02:07:22.294Z,88.66
2023-07-27T02:09:50.618Z,89.00
2023-07-27T02:12:27.632Z,89.60
2023-07-27T02:15:07.424Z,90.07
2023-07-27T02:17:43.580Z,90.29
2023-07-27T02:20:17.979Z,89.99
2023-07-27T02:22:48.544Z,89.72
2023-07-27T02:25:16.946Z,89.53
2023-07-27T02:27:46.306Z,89.35
2023-07-27T02:30:14.722Z,89.39
2023-07-27T02:32:43.045Z,89.11
2023-07-27T02:35:14.184Z,89.02
2023-07-27T02:37:42.433Z,89.20
2023-07-27T02:40:11.383Z,89.19
2023-07-27T02:42:39.629Z,89.73
2023-07-27T02:45:07.920Z,90.90
2023-07-27T02:47:36.480Z,91.20
2023-07-27T02:50:04.938Z,91.72
2023-07-27T02:52:33.381Z,92.27
2023-07-27T02:55:01.757Z,92.44
2023-07-27T02:57:30.106Z,92.66
2023-07-27T02:59:58.371Z,92.80
2023-07-27T03:02:26.679Z,92.89
2023-07-27T03:04:54.721Z,93.46
2023-07-27T03:07:22.955Z,93.59
2023-07-27T03:09:54.053Z,93.37
2023-07-27T03:12:22.276Z,92.97
2023-07-27T03:14:50.586Z,93.40
2023-07-27T03:17:18.980Z,93.55
2023-07-27T03:19:47.228Z,94.10
2023-07-27T03:22:19.210Z,94.08
2023-07-27T03:24:49.922Z,94.55
2023-07-27T03:27:18.561Z,94.75
2023-07-27T03:29:46.806Z,94.60
2023-07-27T03:32:15.170Z,94.96
2023-07-27T03:34:43.444Z,95.14
2023-07-27T03:37:11.854Z,95.35
2023-07-27T03:39:40.135Z,95.49
2023-07-27T03:42:08.716Z,95.39
2023-07-27T03:44:37.002Z,95.00
2023-07-27T03:47:05.165Z,95.02
2023-07-27T03:49:33.445Z,95.32
2023-07-27T03:52:01.687Z,95.20
2023-07-27T03:54:30.006Z,94.58
2023-07-27T03:56:58.268Z,94.53
2023-07-27T03:59:26.578Z,94.23
2023-07-27T04:01:55.274Z,94.13
2023-07-27T04:04:24.515Z,93.86
2023-07-27T04:06:53.153Z,93.50
2023-07-27T04:09:21.484Z,93.89
2023-07-27T04:11:49.404Z,93.62
2023-07-27T04:14:20.264Z,93.02
2023-07-27T04:16:48.557Z,91.43
2023-07-27T04:19:17.413Z,90.23
2023-07-27T04:21:45.668Z,89.62
2023-07-27T04:24:13.980Z,89.20
2023-07-27T04:26:41.949Z,88.88
2023-07-27T04:29:10.242Z,88.45
2023-07-27T04:31:38.511Z,88.09
2023-07-27T04:34:07.075Z,87.48
2023-07-27T04:36:38.039Z,87.13
2023-07-27T04:39:06.335Z,86.88
2023-07-27T04:41:34.706Z,86.91
2023-07-27T04:44:03.038Z,86.32
2023-07-27T04:46:31.566Z,86.04
2023-07-27T04:49:00.138Z,84.98
2023-07-27T04:51:28.388Z,85.25
2023-07-27T04:53:56.652Z,85.07
2023-07-27T04:56:24.916Z,84.22
2023-07-27T04:58:53.219Z,84.27
2023-07-27T05:01:22.384Z,84.73
2023-07-27T05:03:50.581Z,84.87
2023-07-27T05:06:18.851Z,84.86
2023-07-27T05:08:47.181Z,84.79
2023-07-27T05:11:15.448Z,84.60
2023-07-27T05:13:43.799Z,84.06
2023-07-27T05:16:12.086Z,83.75
2023-07-27T05:18:40.359Z,82.83
2023-07-27T05:21:08.632Z,82.74
2023-07-27T05:23:36.929Z,82.74
2023-07-27T05:26:06.487Z,82.75
2023-07-27T05:28:34.761Z,82.05
2023-07-27T05:31:03.037Z,81.97
2023-07-27T05:33:31.325Z,81.29
2023-07-27T05:36:01.253Z,81.14
2023-07-27T05:38:29.546Z,81.03
2023-07-27T05:41:02.290Z,80.43
2023-07-27T05:43:30.672Z,80.31
2023-07-27T05:45:59.313Z,80.17
2023-07-27T05:48:28.097Z,80.03
2023-07-27T05:50:56.322Z,79.60
2023-07-27T05:53:24.613Z,79.27
2023-07-27T05:55:52.855Z,79.07
2023-07-27T05:58:25.566Z,78.60
2023-07-27T06:01:00.799Z,78.64
2023-07-27T06:03:30.471Z,78.66
2023-07-27T06:05:59.036Z,78.62
2023-07-27T06:08:27.786Z,78.15
2023-07-27T06:11:10.492Z,77.13
2023-07-27T06:13:39.107Z,76.40
2023-07-27T06:16:07.964Z,75.63
2023-07-27T06:18:36.472Z,74.97
2023-07-27T06:21:04.718Z,74.36
2023-07-27T06:23:32.990Z,74.59
2023-07-27T06:26:02.191Z,73.83
2023-07-27T06:28:30.523Z,73.61
2023-07-27T06:30:58.832Z,73.71
2023-07-27T06:33:27.151Z,73.73
2023-07-27T06:35:55.502Z,73.70
2023-07-27T06:38:23.782Z,73.55
2023-07-27T06:40:52.775Z,73.71
2023-07-27T06:43:21.056Z,73.34
2023-07-27T06:45:49.372Z,72.97
2023-07-27T06:48:18.635Z,72.51
2023-07-27T06:50:46.921Z,71.96
2023-07-27T06:53:15.259Z,71.88
2023-07-27T06:55:43.536Z,72.53
2023-07-27T06:58:11.839Z,72.43
2023-07-27T07:00:40.177Z,71.66
2023-07-27T07:03:08.582Z,71.51
2023-07-27T07:05:37.154Z,71.70
2023-07-27T07:08:05.630Z,70.91
2023-07-27T07:10:42.715Z,70.46
2023-07-27T07:13:10.977Z,69.32
2023-07-27T07:15:39.318Z,68.11
2023-07-27T07:18:07.623Z,67.94
2023-07-27T07:20:35.965Z,66.32
2023-07-27T07:23:04.221Z,65.28
2023-07-27T07:25:32.514Z,64.96
2023-07-27T07:28:00.912Z,64.68
2023-07-27T07:30:29.183Z,64.32
2023-07-27T07:32:57.480Z,64.19
2023-07-27T07:35:25.789Z,64.90
2023-07-27T07:37:54.469Z,65.67
2023-07-27T07:40:25.585Z,65.31
2023-07-27T07:42:54.345Z,65.71
2023-07-27T07:45:22.602Z,65.03
2023-07-27T07:47:51.068Z,65.72
2023-07-27T07:50:19.377Z,65.75
2023-07-27T07:52:50.620Z,65.50
2023-07-27T07:55:20.742Z,65.66
2023-07-27T07:57:49.041Z,65.59
2023-07-27T08:00:17.697Z,65.28
2023-07-27T08:02:46.176Z,65.72
2023-07-27T08:05:14.466Z,64.26
2023-07-27T08:07:42.787Z,64.16
2023-07-27T08:10:11.694Z,64.09
2023-07-27T08:12:40.148Z,63.94
2023-07-27T08:15:09.147Z,61.83
2023-07-27T08:17:38.005Z,61.05
2023-07-27T08:20:07.044Z,61.47
2023-07-27T08:22:35.290Z,61.35
2023-07-27T08:25:18.733Z,60.33
2023-07-27T08:27:51.624Z,60.46
2023-07-27T08:30:20.286Z,59.84
2023-07-27T08:32:49.184Z,59.72
2023-07-27T08:35:17.634Z,60.11
2023-07-27T08:37:45.894Z,59.84
2023-07-27T08:40:14.580Z,60.06
2023-07-27T08:42:45.437Z,59.82
2023-07-27T08:45:16.430Z,59.58
2023-07-27T08:47:45.163Z,59.60
2023-07-27T08:50:13.983Z,58.65
2023-07-27T08:52:42.384Z,58.99
2023-07-27T08:55:12.044Z,59.40
2023-07-27T08:57:40.371Z,59.27
2023-07-27T09:00:10.897Z,59.18
2023-07-27T09:02:40.181Z,59.66
2023-07-27T09:05:10.290Z,60.52
2023-07-27T09:07:38.657Z,60.73
2023-07-27T09:10:10.215Z,60.98
2023-07-27T09:12:38.685Z,61.28
2023-07-27T09:15:24.554Z,61.58
2023-07-27T09:17:53.548Z,60.36
2023-07-27T09:20:21.925Z,60.71
2023-07-27T09:22:51.489Z,61.09
2023-07-27T09:25:23.404Z,61.75
2023-07-27T09:27:55.906Z,62.03
2023-07-27T09:30:26.153Z,62.17
2023-07-27T09:32:55.285Z,61.98
2023-07-27T09:35:24.008Z,61.82
2023-07-27T09:37:53.597Z,61.40
2023-07-27T09:40:26.722Z,62.62
2023-07-27T09:42:55.277Z,62.35
2023-07-27T09:45:23.612Z,61.94
2023-07-27T09:47:53.475Z,63.12
2023-07-27T09:50:23.522Z,64.56
2023-07-27T09:52:51.793Z,65.71
2023-07-27T09:55:20.248Z,66.28
2023-07-27T09:57:48.860Z,66.86
2023-07-27T10:00:17.157Z,67.38
2023-07-27T10:02:45.487Z,68.71
2023-07-27T10:05:14.163Z,68.58
2023-07-27T10:07:53.695Z,67.30
2023-07-27T10:10:35.527Z,67.21
2023-07-27T10:13:27.756Z,66.13
2023-07-27T10:15:59.694Z,65.29
2023-07-27T10:18:32.984Z,65.52
2023-07-27T10:21:22.762Z,67.07
2023-07-27T10:24:05.369Z,67.88
2023-07-27T10:26:55.593Z,68.52
2023-07-27T10:29:27.503Z,70.62
2023-07-27T10:32:07.016Z,71.31
2023-07-27T10:34:41.125Z,71.86
2023-07-27T10:37:15.216Z,72.56
2023-07-27T10:39:55.721Z,72.91
2023-07-27T10:42:28.823Z,74.34
2023-07-27T10:44:59.849Z,75.67
2023-07-27T10:47:38.540Z,77.19
2023-07-27T10:50:08.324Z,77.69
2023-07-27T10:52:40.121Z,76.58
2023-07-27T10:55:09.263Z,77.23
2023-07-27T10:57:38.813Z,77.66
2023-07-27T11:00:08.258Z,78.21
2023-07-27T11:02:37.716Z,79.05
2023-07-27T11:05:08.830Z,81.06
2023-07-27T11:07:45.722Z,83.29
2023-07-27T11:10:17.879Z,85.37
2023-07-27T11:12:55.906Z,86.11
2023-07-27T11:15:27.970Z,86.75
2023-07-27T11:17:58.598Z,86.64
2023-07-27T11:20:29.955Z,88.04
2023-07-27T11:23:00.113Z,89.74
2023-07-27T11:25:32.144Z,90.79
2023-07-27T11:28:01.600Z,92.48
2023-07-27T11:30:31.933Z,93.66
2023-07-27T11:33:01.899Z,94.89
2023-07-27T11:35:30.379Z,96.19
2023-07-27T11:37:58.921Z,96.88
2023-07-27T11:40:28.071Z,98.26
2023-07-27T11:42:56.895Z,99.48
2023-07-27T11:45:27.469Z,99.64
2023-07-27T11:47:55.903Z,100.00
2023-07-27T11:50:25.001Z,100.00
2023-07-27T11:52:58.869Z,100.00
2023-07-27T11:55:27.529Z,100.00
2023-07-27T11:57:55.849Z,100.00
2023-07-27T12:00:24.247Z,100.00
2023-07-27T12:02:53.837Z,100.00
2023-07-27T12:05:25.137Z,100.00
2023-07-27T12:15:41.763Z,100.00
2023-07-27T12:18:12.175Z,100.00
2023-07-27T12:25:42.829Z,100.00
2023-07-27T12:30:43.863Z,100.00
2023-07-27T12:33:12.909Z,100.00
2023-07-27T12:35:41.749Z,100.00
2023-07-27T12:43:13.007Z,100.00
2023-07-27T12:45:41.599Z,100.00
2023-07-27T12:48:10.028Z,100.00
2023-07-27T12:50:38.424Z,100.00
2023-07-27T12:53:06.758Z,100.00
2023-07-27T12:55:35.068Z,100.00
2023-07-27T12:58:03.426Z,100.00
2023-07-27T13:00:31.709Z,100.00
2023-07-27T13:03:00.108Z,100.00
2023-07-27T13:05:28.529Z,100.00
2023-07-27T13:07:56.886Z,100.00
2023-07-27T13:10:25.205Z,100.00
2023-07-27T13:12:53.473Z,100.00
2023-07-27T13:15:21.737Z,100.00
2023-07-27T13:17:50.092Z,100.00
2023-07-27T13:20:18.396Z,100.00
2023-07-27T13:22:46.650Z,100.00
2023-07-27T13:25:14.920Z,100.00
2023-07-27T13:27:43.198Z,100.00
2023-07-27T13:30:11.904Z,100.00
2023-07-27T13:32:40.306Z,100.00
2023-07-27T13:35:11.125Z,100.00
2023-07-27T13:37:40.447Z,100.00
2023-07-27T13:40:09.313Z,100.00
2023-07-27T13:42:37.573Z,100.00
2023-07-27T13:45:06.736Z,100.00
2023-07-27T13:47:35.076Z,100.00
2023-07-27T13:50:03.536Z,100.00
2023-07-27T13:52:31.852Z,100.00
2023-07-27T13:55:00.150Z,100.00
2023-07-27T13:57:28.432Z,100.00
2023-07-27T13:59:56.728Z,100.00
2023-07-27T14:02:25.072Z,100.00
2023-07-27T14:04:53.406Z,100.00
2023-07-27T14:07:21.666Z,100.00
2023-07-27T14:09:50.250Z,100.00
2023-07-27T14:12:18.638Z,100.00
2023-07-27T14:14:46.865Z,100.00
2023-07-27T14:17:15.115Z,100.00
2023-07-27T14:19:46.045Z,100.00
2023-07-27T14:22:14.299Z,100.00
2023-07-27T14:24:42.604Z,100.00
2023-07-27T14:27:10.913Z,100.00
2023-07-27T14:29:39.167Z,100.00
2023-07-27T14:32:07.879Z,100.00
2023-07-27T14:34:36.161Z,100.00
2023-07-27T14:37:04.468Z,100.00
2023-07-27T14:42:04.369Z,100.00
2023-07-27T14:44:32.614Z,100.00
2023-07-27T14:47:01.240Z,100.00
2023-07-27T14:49:39.496Z,100.00
2023-07-27T14:52:09.599Z,100.00
2023-07-27T14:54:37.919Z,100.00
2023-07-27T14:57:13.741Z,100.00
2023-07-27T14:59:56.037Z,100.00
2023-07-27T15:02:28.983Z,100.00
2023-07-27T15:04:57.605Z,100.00
2023-07-27T15:07:25.999Z,100.00
2023-07-27T15:09:55.351Z,100.00
2023-07-27T15:12:23.661Z,100.00
2023-07-27T15:14:51.892Z,100.00
2023-07-27T15:17:20.252Z,100.00
2023-07-27T15:19:48.728Z,100.00
2023-07-27T15:22:17.037Z,100.00
2023-07-27T15:24:45.288Z,100.00
2023-07-27T15:27:13.532Z,100.00
2023-07-27T15:29:57.509Z,100.00
2023-07-27T15:32:25.894Z,100.00
2023-07-27T15:34:54.316Z,100.00
2023-07-27T15:37:22.632Z,100.00
2023-07-27T15:39:51.091Z,100.00
2023-07-27T15:42:19.989Z,100.00
2023-07-27T15:44:48.369Z,100.00
2023-07-27T15:47:16.763Z,100.00
2023-07-27T15:49:46.875Z,100.00
2023-07-27T15:52:15.143Z,100.00
2023-07-27T15:54:43.465Z,100.00
2023-07-27T15:57:15.683Z,100.00
2023-07-27T15:59:44.150Z,100.00
2023-07-27T16:02:12.817Z,100.00
2023-07-27T16:04:41.100Z,100.00
2023-07-27T16:07:11.558Z,100.00
2023-07-27T16:09:39.811Z,100.00
2023-07-27T16:12:08.521Z,100.00
2023-07-27T16:14:36.886Z,100.00
2023-07-27T16:17:05.223Z,100.00
2023-07-27T16:19:33.602Z,100.00
2023-07-27T16:22:01.903Z,100.00
2023-07-27T16:24:30.426Z,100.00
2023-07-27T16:26:58.669Z,100.00
2023-07-27T16:29:26.663Z,100.00
2023-07-27T16:31:55.199Z,100.00
2023-07-27T16:34:23.457Z,100.00
2023-07-27T16:36:52.022Z,100.00
2023-07-27T16:39:20.332Z,100.00
2023-07-27T16:41:48.638Z,100.00
2023-07-27T16:44:17.735Z,100.00
2023-07-27T16:46:46.099Z,100.00
2023-07-27T16:49:15.699Z,100.00
2023-07-27T16:51:45.108Z,100.00
2023-07-27T16:54:13.711Z,100.00
2023-07-27T16:56:41.958Z,100.00
2023-07-27T16:59:10.285Z,100.00
2023-07-27T17:01:39.564Z,100.00
2023-07-27T17:04:07.992Z,100.00
2023-07-27T17:06:38.076Z,100.00
2023-07-27T17:09:06.589Z,100.00
2023-07-27T17:11:34.978Z,100.00
2023-07-27T17:14:03.228Z,100.00
2023-07-27T17:16:31.574Z,100.00
2023-07-27T17:19:00.102Z,100.00
2023-07-27T17:21:28.525Z,100.00
2023-07-27T17:23:57.043Z,100.00
2023-07-27T17:26:25.556Z,100.00
2023-07-27T17:28:55.484Z,100.00
2023-07-27T17:31:24.002Z,100.00
2023-07-27T17:33:52.032Z,100.00
2023-07-27T17:36:20.289Z,100.00
2023-07-27T17:38:48.557Z,100.00
2023-07-27T17:41:16.829Z,100.00
2023-07-27T17:43:45.388Z,100.00
2023-07-27T17:46:13.689Z,100.00
2023-07-27T17:48:41.994Z,100.00
2023-07-27T17:51:10.675Z,100.00
2023-07-27T17:53:38.979Z,100.00
2023-07-27T17:56:08.324Z,100.00
2023-07-27T17:58:36.693Z,100.00
2023-07-27T18:01:05.158Z,100.00
2023-07-27T18:03:33.532Z,100.00
2023-07-27T18:06:07.991Z,100.00
2023-07-27T18:08:36.318Z,100.00
2023-07-27T18:11:11.700Z,100.00
2023-07-27T18:13:41.652Z,100.00
2023-07-27T18:16:17.528Z,100.00
2023-07-27T18:18:45.937Z,100.00
2023-07-27T18:21:17.239Z,100.00
2023-07-27T18:23:48.702Z,100.00
2023-07-27T18:26:18.422Z,100.00
2023-07-27T18:28:46.978Z,100.00
2023-07-27T18:31:15.271Z,100.00
2023-07-27T18:33:43.601Z,100.00
2023-07-27T18:36:17.186Z,100.00
2023-07-27T18:38:47.107Z,100.00
2023-07-27T18:41:17.618Z,100.00
2023-07-27T18:43:46.427Z,100.00
2023-07-27T18:46:21.046Z,100.00
2023-07-27T18:48:50.151Z,100.00
2023-07-27T18:51:18.717Z,100.00
2023-07-27T18:53:47.124Z,100.00
2023-07-27T18:56:15.418Z,100.00
2023-07-27T18:58:43.771Z,100.00
2023-07-27T19:01:12.291Z,100.00
2023-07-27T19:03:41.440Z,100.00
2023-07-27T19:06:10.797Z,100.00
2023-07-27T19:08:39.220Z,100.00
2023-07-27T19:11:08.304Z,100.00
2023-07-27T19:13:36.905Z,100.00
2023-07-27T19:16:05.898Z,100.00
2023-07-27T19:18:35.417Z,100.00
2023-07-27T19:21:06.261Z,100.00
2023-07-27T19:23:36.246Z,100.00
2023-07-27T19:26:04.656Z,100.00
2023-07-27T19:28:33.005Z,100.00
2023-07-27T19:31:02.166Z,100.00
2023-07-27T19:33:30.491Z,100.00
2023-07-27T19:35:59.432Z,100.00
2023-07-27T19:38:27.762Z,100.00
2023-07-27T19:40:56.006Z,100.00
2023-07-27T19:43:25.130Z,100.00
2023-07-27T19:45:53.525Z,100.00
2023-07-27T19:48:21.838Z,100.00
2023-07-27T19:50:53.516Z,100.00
2023-07-27T19:53:21.874Z,100.00
2023-07-27T19:55:50.246Z,100.00
2023-07-27T19:58:18.559Z,100.00
2023-07-27T20:00:46.857Z,100.00
2023-07-27T20:03:15.330Z,100.00
2023-07-27T20:05:43.594Z,100.00
2023-07-27T20:08:11.809Z,100.00
2023-07-27T20:10:40.072Z,100.00
2023-07-27T20:13:08.350Z,100.00
2023-07-27T20:15:36.767Z,100.00
2023-07-27T20:18:05.410Z,100.00
2023-07-27T20:20:33.754Z,100.00
2023-07-27T20:23:02.612Z,100.00
2023-07-27T20:25:30.896Z,100.00
2023-07-27T20:27:59.178Z,100.00
2023-07-27T20:30:27.490Z,100.00
2023-07-27T20:32:55.821Z,100.00
2023-07-27T20:35:24.119Z,100.00
2023-07-27T20:37:52.423Z,100.00
2023-07-27T20:40:20.685Z,100.00
2023-07-27T20:42:49.291Z,100.00
2023-07-27T20:45:17.791Z,100.00
2023-07-27T20:47:46.081Z,100.00
2023-07-27T20:50:15.166Z,100.00
2023-07-27T20:52:44.383Z,100.00
2023-07-27T20:55:12.679Z,100.00
2023-07-27T20:57:40.923Z,100.00
2023-07-27T21:00:10.091Z,100.00
2023-07-27T21:02:37.980Z,100.00
2023-07-27T21:05:06.426Z,100.00
2023-07-27T21:07:34.776Z,100.00
2023-07-27T21:10:03.565Z,100.00
2023-07-27T21:12:31.881Z,100.00
2023-07-27T21:15:03.586Z,100.00
2023-07-27T21:17:31.998Z,100.00
2023-07-27T21:20:00.509Z,100.00
2023-07-27T21:22:28.815Z,100.00
2023-07-27T21:24:57.096Z,100.00
2023-07-27T21:27:25.390Z,100.00
2023-07-27T21:29:53.816Z,100.00
2023-07-27T21:32:22.384Z,100.00
2023-07-27T21:34:50.874Z,100.00
2023-07-27T21:37:19.257Z,100.00
2023-07-27T21:39:49.346Z,100.00
2023-07-27T21:42:23.423Z,100.00
2023-07-27T21:44:51.696Z,100.00
2023-07-27T21:47:19.936Z,100.00
2023-07-27T21:49:48.195Z,100.00
2023-07-27T21:52:16.271Z,100.00
2023-07-27T21:54:44.498Z,100.00
2023-07-27T21:57:12.845Z,100.00
2023-07-27T21:59:41.257Z,100.00
2023-07-27T22:02:09.601Z,100.00
2023-07-27T22:04:38.501Z,100.00
2023-07-27T22:07:06.790Z,100.00
2023-07-27T22:09:35.043Z,100.00
2023-07-27T22:12:03.487Z,100.00
2023-07-27T22:14:31.730Z,100.00
2023-07-27T22:17:00.000Z,100.00
2023-07-27T22:19:28.304Z,100.00
2023-07-27T22:21:56.571Z,100.00
2023-07-27T22:24:25.062Z,100.00
2023-07-27T22:26:53.341Z,100.00
2023-07-27T22:29:21.579Z,100.00
2023-07-27T22:31:50.414Z,100.00
2023-07-27T22:34:18.808Z,100.00
2023-07-27T22:36:47.057Z,100.00
2023-07-27T22:39:17.174Z,100.00
2023-07-27T22:41:46.846Z,100.00
2023-07-27T22:44:15.349Z,100.00
2023-07-27T22:46:43.618Z,100.00
2023-07-27T22:49:11.929Z,100.00
2023-07-27T22:51:41.199Z,100.00
2023-07-27T22:54:09.675Z,100.00
2023-07-27T22:56:38.188Z,100.00
2023-07-27T22:59:06.459Z,100.00
2023-07-27T23:01:34.792Z,100.00
2023-07-27T23:04:02.772Z,100.00
2023-07-27T23:06:31.478Z,100.00
2023-07-27T23:09:00.094Z,100.00
2023-07-27T23:11:28.383Z,100.00
2023-07-27T23:13:56.624Z,100.00
2023-07-27T23:16:24.976Z,100.00
2023-07-27T23:18:53.293Z,100.00
2023-07-27T23:21:21.577Z,100.00
2023-07-27T23:23:50.099Z,100.00
2023-07-27T23:26:18.411Z,100.00
2023-07-27T23:28:46.688Z,100.00
2023-07-27T23:31:14.629Z,100.00
2023-07-27T23:33:42.907Z,100.00
2023-07-27T23:36:13.854Z,100.00
2023-07-27T23:38:42.149Z,100.00
2023-07-27T23:41:10.441Z,100.00
2023-07-27T23:43:38.707Z,100.00
2023-07-27T23:46:07.022Z,100.00
2023-07-27T23:48:35.307Z,100.00
2023-07-27T23:51:03.577Z,100.00
2023-07-27T23:53:31.838Z,100.00
2023-07-27T23:56:00.582Z,100.00
2023-07-27T23:58:28.851Z,100.00
